Terminal Aerodrome Forecast
Issued by NWS Jackson, MS

Current Version | Previous Version | Text Only | Print | Product List | Glossary On
Versions: 1 2 3 4 5 6 7 8 9 10 11 12 13 14 15 16 17 18 19 20 21
000
FTUS44 KMEG 170729 AAA
TAFTUP
TAF AMD
KTUP 170729Z 1707/1806 17011KT P6SM SCT030 OVC050
     FM171200 19009KT P6SM -SHRA VCTS OVC035CB
     FM171900 26006KT 6SM -SHRA BR VCTS BKN009CB
     FM180300 36004KT 4SM BR OVC003=

USA.gov is the U.S. government's official web portal to all federal, state and local government web resources and services.